createdAt,value
2018-04-14T00:01:37.081Z,2.75
2018-04-14T00:04:04.787Z,2.35
2018-04-14T00:06:33.935Z,2.20
2018-04-14T00:09:01.596Z,2.90
2018-04-14T00:11:29.240Z,2.75
2018-04-14T00:13:58.375Z,2.23
2018-04-14T00:16:26.088Z,2.80
2018-04-14T00:18:54.522Z,2.62
2018-04-14T00:21:22.178Z,3.03
2018-04-14T00:23:49.816Z,2.40
2018-04-14T00:26:17.459Z,2.40
2018-04-14T00:28:45.142Z,2.20
2018-04-14T00:31:13.575Z,2.40
2018-04-14T00:33:41.597Z,2.30
2018-04-14T00:36:09.603Z,2.40
2018-04-14T00:38:37.274Z,3.05
2018-04-14T00:41:05.695Z,2.28
2018-04-14T00:43:34.123Z,2.60
2018-04-14T00:46:01.796Z,3.00
2018-04-14T00:48:29.399Z,2.55
2018-04-14T00:50:57.620Z,2.78
2018-04-14T00:53:37.828Z,3.15
2018-04-14T00:56:05.496Z,2.50
2018-04-14T00:58:33.257Z,2.50
2018-04-14T01:01:00.923Z,3.00
2018-04-14T01:03:28.577Z,2.50
2018-04-14T01:05:57.131Z,3.37
2018-04-14T01:08:24.791Z,3.12
2018-04-14T01:10:52.428Z,2.90
2018-04-14T01:13:21.120Z,2.78
2018-04-14T01:15:48.744Z,3.28
2018-04-14T01:18:17.251Z,2.78
2018-04-14T01:20:45.134Z,3.20
2018-04-14T01:23:12.785Z,3.22
2018-04-14T01:25:40.479Z,2.80
2018-04-14T01:28:08.149Z,2.78
2018-04-14T01:30:36.249Z,3.22
2018-04-14T01:33:03.903Z,3.15
2018-04-14T01:35:31.534Z,3.20
2018-04-14T01:37:59.194Z,3.17
2018-04-14T01:40:26.892Z,3.08
2018-04-14T01:42:54.524Z,3.17
2018-04-14T01:45:22.930Z,3.85
2018-04-14T01:47:50.768Z,2.95
2018-04-14T01:50:19.146Z,3.10
2018-04-14T01:52:46.903Z,3.53
2018-04-14T01:55:14.520Z,3.10
2018-04-14T01:57:42.142Z,3.95
2018-04-14T02:00:09.776Z,3.22
2018-04-14T02:02:37.386Z,3.40
2018-04-14T02:05:05.809Z,3.35
2018-04-14T02:07:33.504Z,3.20
2018-04-14T02:10:01.092Z,4.20
2018-04-14T02:12:28.723Z,3.65
2018-04-14T02:14:56.355Z,3.58
2018-04-14T02:17:23.999Z,4.22
2018-04-14T02:19:52.396Z,3.42
2018-04-14T02:22:20.037Z,3.62
2018-04-14T02:24:49.180Z,3.67
2018-04-14T02:27:16.824Z,3.62
2018-04-14T02:29:45.243Z,4.45
2018-04-14T02:32:12.889Z,3.72
2018-04-14T02:34:40.521Z,3.80
2018-04-14T02:37:08.162Z,3.83
2018-04-14T02:39:35.900Z,3.65
2018-04-14T02:42:03.545Z,3.30
2018-04-14T02:44:31.957Z,3.40
2018-04-14T02:46:59.607Z,3.50
2018-04-14T02:49:27.285Z,3.28
2018-04-14T02:51:55.255Z,3.30
2018-04-14T02:54:23.613Z,3.33
2018-04-14T02:56:52.372Z,3.55
2018-04-14T02:59:20.808Z,3.83
2018-04-14T03:01:48.442Z,3.28
2018-04-14T03:04:16.107Z,3.53
2018-04-14T03:06:43.750Z,3.53
2018-04-14T03:09:11.836Z,3.80
2018-04-14T03:11:39.463Z,3.93
2018-04-14T03:14:07.145Z,4.15
2018-04-14T03:16:34.813Z,3.92
2018-04-14T03:19:02.431Z,4.68
2018-04-14T03:21:30.060Z,4.60
2018-04-14T03:23:57.717Z,4.18
2018-04-14T03:26:25.347Z,5.12
2018-04-14T03:28:53.139Z,4.53
2018-04-14T03:31:20.809Z,4.28
2018-04-14T03:33:48.460Z,4.90
2018-04-14T03:36:16.124Z,5.25
2018-04-14T03:38:43.731Z,5.05
2018-04-14T03:41:11.397Z,5.07
2018-04-14T03:43:39.086Z,4.78
2018-04-14T03:46:06.741Z,4.75
2018-04-14T03:48:34.356Z,5.00
2018-04-14T03:51:02.216Z,4.80
2018-04-14T03:53:29.857Z,5.90
2018-04-14T03:55:57.635Z,6.35
2018-04-14T03:58:26.017Z,6.45
2018-04-14T04:00:53.768Z,5.80
2018-04-14T04:03:21.401Z,6.35
2018-04-14T04:05:49.066Z,5.35
2018-04-14T04:08:17.496Z,6.68
2018-04-14T04:10:45.362Z,7.18
2018-04-14T04:13:13.018Z,6.43
2018-04-14T04:15:40.658Z,6.30
2018-04-14T04:18:08.389Z,6.30
2018-04-14T04:20:51.503Z,5.28
2018-04-14T04:23:31.725Z,5.63
2018-04-14T04:25:59.384Z,5.87
2018-04-14T04:28:27.028Z,5.83
2018-04-14T04:30:54.713Z,5.07
2018-04-14T04:33:22.376Z,4.82
2018-04-14T04:35:50.059Z,5.35
2018-04-14T04:38:17.990Z,4.82
2018-04-14T04:40:46.372Z,5.75
2018-04-14T04:43:14.790Z,6.03
2018-04-14T04:45:42.416Z,5.78
2018-04-14T04:48:10.789Z,7.05
2018-04-14T04:50:39.203Z,6.20
2018-04-14T04:53:06.803Z,6.65
2018-04-14T04:55:34.920Z,7.40
2018-04-14T04:58:03.469Z,6.70
2018-04-14T05:00:31.122Z,7.47
2018-04-14T05:02:58.777Z,5.00
2018-04-14T05:05:26.448Z,6.65
2018-04-14T05:07:54.068Z,6.15
2018-04-14T05:10:22.482Z,6.65
2018-04-14T05:12:50.095Z,6.03
2018-04-14T05:15:17.738Z,6.55
2018-04-14T05:17:45.397Z,6.37
2018-04-14T05:20:13.046Z,6.80
2018-04-14T05:22:40.709Z,6.60
2018-04-14T05:25:08.410Z,6.90
2018-04-14T05:27:36.080Z,7.47
2018-04-14T05:30:05.242Z,7.37
2018-04-14T05:32:32.912Z,6.93
2018-04-14T05:35:00.610Z,7.45
2018-04-14T05:37:28.252Z,9.30
2018-04-14T05:39:56.165Z,7.10
2018-04-14T05:42:24.450Z,10.38
2018-04-14T05:44:52.054Z,9.32
2018-04-14T05:47:19.690Z,8.93
2018-04-14T05:49:47.360Z,11.75
2018-04-14T05:52:14.996Z,9.77
2018-04-14T05:54:42.717Z,9.85
2018-04-14T05:57:11.226Z,11.10
2018-04-14T05:59:38.848Z,9.98
2018-04-14T06:02:07.412Z,11.80
2018-04-14T06:04:35.172Z,11.80
2018-04-14T06:07:02.813Z,11.70
2018-04-14T06:09:30.495Z,11.73
2018-04-14T06:11:58.135Z,12.20
2018-04-14T06:14:26.514Z,10.45
2018-04-14T06:16:54.185Z,11.50
2018-04-14T06:19:21.841Z,11.70
2018-04-14T06:21:49.506Z,11.73
2018-04-14T06:24:17.163Z,11.20
2018-04-14T06:26:45.499Z,10.40
2018-04-14T06:29:13.117Z,12.25
2018-04-14T06:31:42.160Z,11.50
2018-04-14T06:34:09.775Z,11.65
2018-04-14T06:36:38.186Z,12.00
2018-04-14T06:39:06.635Z,9.75
2018-04-14T06:41:34.484Z,11.10
2018-04-14T06:44:02.101Z,10.15
2018-04-14T06:46:30.503Z,10.57
2018-04-14T06:48:58.185Z,10.95
2018-04-14T06:51:26.638Z,10.68
2018-04-14T06:53:55.063Z,10.75
2018-04-14T06:56:22.764Z,10.65
2018-04-14T06:58:50.402Z,10.83
2018-04-14T07:01:18.009Z,10.77
2018-04-14T07:03:46.458Z,13.13
2018-04-14T07:06:14.079Z,11.02
2018-04-14T07:08:41.744Z,14.05
2018-04-14T07:11:10.153Z,13.68
2018-04-14T07:13:37.818Z,17.83
2018-04-14T07:16:05.462Z,13.57
2018-04-14T07:18:33.097Z,14.52
2018-04-14T07:21:01.535Z,16.75
2018-04-14T07:23:29.185Z,16.77
2018-04-14T07:25:57.824Z,14.98
2018-04-14T07:28:25.468Z,16.87
2018-04-14T07:30:53.145Z,19.37
2018-04-14T07:33:20.813Z,20.80
2018-04-14T07:35:48.466Z,16.05
2018-04-14T07:38:16.894Z,19.25
2018-04-14T07:40:45.304Z,19.02
2018-04-14T07:43:15.142Z,18.07
2018-04-14T07:45:42.796Z,18.90
2018-04-14T07:48:11.852Z,18.95
2018-04-14T07:50:39.490Z,16.70
2018-04-14T07:53:07.127Z,16.40
2018-04-14T07:55:34.758Z,18.15
2018-04-14T07:58:02.463Z,19.17
2018-04-14T08:00:30.108Z,19.58
2018-04-14T08:02:58.568Z,20.48
2018-04-14T08:05:26.769Z,18.67
2018-04-14T08:07:54.684Z,20.50
2018-04-14T08:10:23.112Z,21.45
2018-04-14T08:12:50.840Z,22.58
2018-04-14T08:15:18.502Z,21.95
2018-04-14T08:17:46.727Z,22.25
2018-04-14T08:20:14.381Z,20.05
2018-04-14T08:22:42.067Z,21.40
2018-04-14T08:25:10.482Z,20.10
2018-04-14T08:27:38.879Z,20.45
2018-04-14T08:30:06.594Z,19.80
2018-04-14T08:32:34.209Z,21.60
2018-04-14T08:35:02.633Z,21.48
2018-04-14T08:37:30.299Z,20.60
2018-04-14T08:39:58.065Z,19.92
2018-04-14T08:42:25.737Z,23.95
2018-04-14T08:44:53.352Z,22.65
2018-04-14T08:47:21.002Z,23.75
2018-04-14T08:49:49.936Z,22.13
2018-04-14T08:52:17.602Z,23.33
2018-04-14T08:54:45.297Z,21.27
2018-04-14T08:57:13.539Z,24.12
2018-04-14T08:59:41.178Z,20.85
2018-04-14T09:02:08.904Z,20.88
2018-04-14T09:04:36.594Z,22.97
2018-04-14T09:07:04.335Z,21.10
2018-04-14T09:09:32.020Z,21.87
2018-04-14T09:11:59.667Z,20.95
2018-04-14T09:14:27.981Z,19.15
2018-04-14T09:16:56.536Z,21.02
2018-04-14T09:19:24.193Z,19.98
2018-04-14T09:21:52.804Z,21.73
2018-04-14T09:24:20.468Z,19.58
2018-04-14T09:26:48.119Z,19.70
2018-04-14T09:29:15.843Z,19.90
2018-04-14T09:31:43.520Z,20.27
2018-04-14T09:34:11.945Z,19.83
2018-04-14T09:36:39.567Z,20.80
2018-04-14T09:39:07.949Z,22.65
2018-04-14T09:41:36.387Z,21.40
2018-04-14T09:44:04.089Z,20.88
2018-04-14T09:46:31.773Z,21.35
2018-04-14T09:49:00.252Z,21.33
2018-04-14T09:51:27.928Z,20.02
2018-04-14T09:53:55.678Z,20.73
2018-04-14T09:56:24.187Z,17.00
2018-04-14T09:58:52.593Z,19.77
2018-04-14T10:01:26.016Z,18.05
2018-04-14T10:03:54.605Z,17.37
2018-04-14T10:06:22.268Z,17.20
2018-04-14T10:08:50.465Z,17.08
2018-04-14T10:11:18.135Z,15.05
2018-04-14T10:13:45.772Z,14.05
2018-04-14T10:16:13.469Z,13.82
2018-04-14T10:18:42.166Z,15.05
2018-04-14T10:21:09.810Z,13.23
2018-04-14T10:23:37.978Z,11.18
2018-04-14T10:26:05.653Z,14.95
2018-04-14T10:28:33.339Z,12.98
2018-04-14T10:31:01.027Z,13.18
2018-04-14T10:33:29.610Z,12.52
2018-04-14T10:35:58.064Z,11.52
2018-04-14T10:38:25.704Z,10.93
2018-04-14T10:40:53.421Z,11.55
2018-04-14T10:43:21.904Z,11.32
2018-04-14T10:45:49.563Z,13.43
2018-04-14T10:48:17.270Z,11.27
2018-04-14T10:50:46.530Z,13.43
2018-04-14T10:53:14.344Z,11.77
2018-04-14T10:55:42.817Z,11.85
2018-04-14T10:58:10.449Z,9.70
2018-04-14T11:00:38.134Z,11.63
2018-04-14T11:03:05.852Z,10.93
2018-04-14T11:05:33.514Z,10.40
2018-04-14T11:08:01.201Z,11.73
2018-04-14T11:10:28.915Z,12.00
2018-04-14T11:12:57.350Z,10.75
2018-04-14T11:15:25.017Z,10.20
2018-04-14T11:17:52.679Z,9.35
2018-04-14T11:20:21.128Z,11.48
2018-04-14T11:22:49.515Z,9.30
2018-04-14T11:25:17.223Z,10.32
2018-04-14T11:27:44.942Z,10.38
2018-04-14T11:30:12.624Z,9.32
2018-04-14T11:32:41.019Z,8.27
2018-04-14T11:35:08.709Z,9.23
2018-04-14T11:37:37.201Z,10.00
2018-04-14T11:40:04.849Z,8.95
2018-04-14T11:42:32.536Z,10.83
2018-04-14T11:45:00.187Z,9.30
2018-04-14T11:47:27.863Z,10.25
2018-04-14T11:49:55.592Z,8.77
2018-04-14T11:52:24.014Z,8.77
2018-04-14T11:54:51.670Z,10.07
2018-04-14T11:57:19.302Z,9.75
2018-04-14T11:59:47.035Z,8.98
2018-04-14T12:02:14.692Z,8.45
2018-04-14T12:04:42.386Z,8.80
2018-04-14T12:07:10.073Z,9.93
2018-04-14T12:09:37.735Z,8.45
2018-04-14T12:12:06.143Z,9.70
2018-04-14T12:14:34.180Z,9.67
2018-04-14T12:17:01.867Z,10.55
2018-04-14T12:19:29.507Z,10.18
2018-04-14T12:21:57.177Z,9.38
2018-04-14T12:24:24.829Z,9.80
2018-04-14T12:26:52.515Z,9.60
2018-04-14T12:29:20.162Z,9.30
2018-04-14T12:31:48.125Z,9.18
2018-04-14T12:34:15.966Z,10.13
2018-04-14T12:36:44.341Z,10.43
2018-04-14T12:39:13.613Z,10.83
2018-04-14T12:41:41.519Z,10.13
2018-04-14T12:44:09.960Z,10.77
2018-04-14T12:46:37.613Z,9.63
2018-04-14T12:49:05.255Z,9.93
2018-04-14T12:51:33.054Z,9.77
2018-04-14T12:54:00.685Z,10.70
2018-04-14T12:56:28.382Z,9.30
2018-04-14T12:58:56.040Z,8.95
2018-04-14T13:01:23.664Z,11.40
2018-04-14T13:03:52.199Z,9.63
2018-04-14T13:06:19.864Z,12.40
2018-04-14T13:08:47.522Z,10.53
2018-04-14T13:11:15.851Z,9.68
2018-04-14T13:13:45.102Z,9.27
2018-04-14T13:16:12.717Z,8.25
2018-04-14T13:18:40.689Z,10.00
2018-04-14T13:21:08.877Z,10.30
2018-04-14T13:23:36.564Z,10.10
2018-04-14T13:26:04.585Z,9.43
2018-04-14T13:28:32.419Z,9.75
2018-04-14T13:31:01.528Z,8.27
2018-04-14T13:33:29.257Z,7.70
2018-04-14T13:35:56.958Z,7.50
2018-04-14T13:38:24.658Z,8.23
2018-04-14T13:40:52.379Z,7.12
2018-04-14T13:43:20.112Z,9.00
2018-04-14T13:45:47.804Z,8.07
2018-04-14T13:48:15.644Z,8.27
2018-04-14T13:50:44.423Z,9.70
2018-04-14T13:53:12.184Z,8.30
2018-04-14T13:55:39.850Z,8.33
2018-04-14T13:58:07.615Z,8.73
2018-04-14T14:00:35.255Z,8.82
2018-04-14T14:03:03.845Z,8.52
2018-04-14T14:05:31.622Z,8.30
2018-04-14T14:07:59.298Z,8.25
2018-04-14T14:10:26.952Z,8.23
2018-04-14T14:12:54.591Z,9.00
2018-04-14T14:15:22.303Z,6.77
2018-04-14T14:17:49.970Z,8.68
2018-04-14T14:20:17.825Z,8.43
2018-04-14T14:22:46.131Z,8.98
2018-04-14T14:25:13.756Z,8.23
2018-04-14T14:27:41.402Z,10.20
2018-04-14T14:30:10.627Z,8.65
2018-04-14T14:32:39.141Z,8.73
2018-04-14T14:35:07.765Z,8.60
2018-04-14T14:37:35.459Z,9.63
2018-04-14T14:40:03.906Z,7.85
2018-04-14T14:42:31.848Z,9.43
2018-04-14T14:44:59.472Z,9.13
2018-04-14T14:47:27.197Z,9.50
2018-04-14T14:50:00.666Z,9.93
2018-04-14T14:52:28.338Z,9.40
2018-04-14T14:54:56.053Z,10.05
2018-04-14T14:57:23.697Z,9.17
2018-04-14T14:59:51.297Z,9.80
2018-04-14T15:02:19.490Z,12.40
2018-04-14T15:04:48.214Z,11.00
2018-04-14T15:07:17.489Z,11.13
2018-04-14T15:09:45.174Z,10.55
2018-04-14T15:12:12.872Z,10.07
2018-04-14T15:14:40.562Z,12.00
2018-04-14T15:17:08.229Z,11.00
2018-04-14T15:19:35.893Z,11.07
2018-04-14T15:22:03.519Z,10.88
2018-04-14T15:24:31.259Z,11.43
2018-04-14T15:26:59.048Z,12.30
2018-04-14T15:29:27.427Z,10.83
2018-04-14T15:31:55.102Z,10.50
2018-04-14T15:34:23.817Z,11.52
2018-04-14T15:36:51.658Z,11.63
2018-04-14T15:39:19.357Z,10.43
2018-04-14T15:41:47.738Z,9.60
2018-04-14T15:44:16.218Z,13.18
2018-04-14T15:46:43.990Z,10.57
2018-04-14T15:49:11.700Z,10.45
2018-04-14T15:51:39.385Z,9.90
2018-04-14T15:54:07.220Z,9.50
2018-04-14T15:56:34.876Z,10.90
2018-04-14T15:59:02.617Z,10.43
2018-04-14T16:01:30.282Z,12.13
2018-04-14T16:03:57.942Z,17.05
2018-04-14T16:06:25.682Z,14.63
2018-04-14T16:08:53.329Z,16.37
2018-04-14T16:11:21.010Z,15.65
2018-04-14T16:13:49.553Z,15.77
2018-04-14T16:16:17.232Z,17.83
2018-04-14T16:18:44.913Z,17.48
2018-04-14T16:21:12.863Z,14.30
2018-04-14T16:23:41.167Z,17.77
2018-04-14T16:26:08.781Z,15.52
2018-04-14T16:28:36.404Z,17.53
2018-04-14T16:31:04.212Z,17.83
2018-04-14T16:33:32.567Z,18.30
2018-04-14T16:36:00.161Z,20.35
2018-04-14T16:38:28.568Z,18.70
2018-04-14T16:40:56.170Z,18.58
2018-04-14T16:43:23.765Z,20.20
2018-04-14T16:45:52.275Z,17.37
2018-04-14T16:48:19.902Z,16.98
2018-04-14T16:50:47.563Z,16.37
2018-04-14T16:53:15.165Z,19.33
2018-04-14T16:55:43.559Z,17.63
2018-04-14T16:58:11.169Z,18.27
2018-04-14T17:00:38.795Z,18.35
2018-04-14T17:03:06.448Z,18.23
2018-04-14T17:05:34.865Z,20.12
2018-04-14T17:08:02.511Z,17.70
2018-04-14T17:10:30.195Z,18.75
2018-04-14T17:12:57.833Z,19.75
2018-04-14T17:15:26.208Z,18.17
2018-04-14T17:17:54.800Z,20.48
2018-04-14T17:20:22.506Z,18.17
2018-04-14T17:22:50.172Z,19.23
2018-04-14T17:25:17.843Z,19.87
2018-04-14T17:27:45.497Z,18.42
2018-04-14T17:30:13.157Z,20.90
2018-04-14T17:32:40.993Z,18.00
2018-04-14T17:35:09.604Z,19.73
2018-04-14T17:37:37.216Z,22.83
2018-04-14T17:40:04.817Z,19.65
2018-04-14T17:42:33.853Z,17.73
2018-04-14T17:45:02.174Z,19.42
2018-04-14T17:47:29.965Z,20.92
2018-04-14T17:49:58.350Z,20.60
2018-04-14T17:52:27.509Z,20.40
2018-04-14T17:54:55.181Z,19.17
2018-04-14T17:57:22.891Z,20.37
2018-04-14T17:59:50.614Z,21.90
2018-04-14T18:02:18.323Z,20.90
2018-04-14T18:04:46.800Z,20.27
2018-04-14T18:07:14.471Z,20.45
2018-04-14T18:09:42.915Z,20.60
2018-04-14T18:12:10.580Z,22.75
2018-04-14T18:14:38.263Z,20.02
2018-04-14T18:17:05.940Z,20.98
2018-04-14T18:19:33.562Z,20.77
2018-04-14T18:22:01.369Z,21.10
2018-04-14T18:24:29.000Z,24.65
2018-04-14T18:26:56.669Z,20.75
2018-04-14T18:29:24.320Z,20.27
2018-04-14T18:31:54.052Z,22.65
2018-04-14T18:34:22.718Z,19.70
2018-04-14T18:36:50.375Z,21.15
2018-04-14T18:39:18.330Z,19.53
2018-04-14T18:41:45.993Z,19.35
2018-04-14T18:44:14.004Z,19.80
2018-04-14T18:46:41.948Z,20.27
2018-04-14T18:49:09.644Z,22.45
2018-04-14T18:51:37.304Z,23.62
2018-04-14T18:54:05.069Z,20.65
2018-04-14T18:56:32.760Z,18.02
2018-04-14T18:59:00.463Z,21.45
2018-04-14T19:01:28.156Z,21.58
2018-04-14T19:03:55.819Z,23.30
2018-04-14T19:06:23.480Z,19.80
2018-04-14T19:08:51.144Z,20.37
2018-04-14T19:11:18.760Z,18.27
2018-04-14T19:13:47.472Z,19.73
2018-04-14T19:16:15.660Z,21.25
2018-04-14T19:18:43.268Z,20.95
2018-04-14T19:21:11.013Z,20.83
2018-04-14T19:23:38.632Z,20.98
2018-04-14T19:26:07.030Z,19.25
2018-04-14T19:28:35.502Z,21.87
2018-04-14T19:31:03.962Z,21.05
2018-04-14T19:33:31.785Z,20.50
2018-04-14T19:35:59.501Z,21.55
2018-04-14T19:38:27.171Z,19.33
2018-04-14T19:40:54.805Z,23.25
2018-04-14T19:43:22.661Z,20.40
2018-04-14T19:45:50.386Z,20.90
2018-04-14T19:48:18.040Z,20.53
2018-04-14T19:50:45.752Z,20.45
2018-04-14T19:53:14.127Z,19.70
2018-04-14T19:55:42.406Z,19.50
2018-04-14T19:58:10.088Z,16.70
2018-04-14T20:00:37.787Z,19.75
2018-04-14T20:03:05.493Z,20.65
2018-04-14T20:05:33.176Z,18.87
2018-04-14T20:08:01.986Z,19.42
2018-04-14T20:10:29.628Z,21.00
2018-04-14T20:12:57.282Z,21.30
2018-04-14T20:15:24.923Z,19.58
2018-04-14T20:17:52.576Z,19.30
2018-04-14T20:20:21.816Z,19.17
2018-04-14T20:22:49.476Z,20.10
2018-04-14T20:25:17.144Z,19.90
2018-04-14T20:27:44.787Z,22.77
2018-04-14T20:30:12.446Z,27.85
2018-04-14T20:32:40.115Z,21.98
2018-04-14T20:35:07.995Z,23.98
2018-04-14T20:37:35.616Z,21.08
2018-04-14T20:40:04.068Z,19.50
2018-04-14T20:42:31.736Z,21.08
2018-04-14T20:44:59.662Z,21.35
2018-04-14T20:47:27.419Z,20.33
2018-04-14T20:49:55.460Z,19.02
2018-04-14T20:52:23.125Z,20.15
2018-04-14T20:54:51.521Z,20.90
2018-04-14T20:57:19.990Z,18.48
2018-04-14T20:59:48.778Z,18.77
2018-04-14T21:02:16.436Z,19.40
2018-04-14T21:04:44.097Z,19.42
2018-04-14T21:07:11.765Z,18.23
2018-04-14T21:09:39.418Z,19.05
2018-04-14T21:12:07.985Z,18.92
2018-04-14T21:14:36.289Z,18.62
2018-04-14T21:17:03.915Z,18.42
2018-04-14T21:19:32.397Z,18.87
2018-04-14T21:22:00.799Z,18.73
2018-04-14T21:24:28.459Z,17.90
2018-04-14T21:26:56.123Z,20.60
2018-04-14T21:29:23.778Z,20.80
2018-04-14T21:31:52.954Z,19.33
2018-04-14T21:34:20.596Z,20.80
2018-04-14T21:36:48.324Z,20.15
2018-04-14T21:39:15.959Z,20.97
2018-04-14T21:41:43.620Z,21.00
2018-04-14T21:44:11.309Z,20.27
2018-04-14T21:46:39.713Z,21.50
2018-04-14T21:49:07.355Z,20.67
2018-04-14T21:51:35.071Z,21.15
2018-04-14T21:54:02.729Z,20.80
2018-04-14T21:56:30.391Z,22.08
2018-04-14T21:58:58.010Z,20.92
2018-04-14T22:01:25.652Z,21.27
2018-04-14T22:03:53.287Z,19.45
2018-04-14T22:06:21.012Z,22.48
2018-04-14T22:08:48.674Z,21.42
2018-04-14T22:11:16.525Z,21.77
2018-04-14T22:13:44.168Z,18.58
2018-04-14T22:16:11.805Z,19.85
2018-04-14T22:18:40.216Z,20.02
2018-04-14T22:21:07.833Z,21.42
2018-04-14T22:23:35.511Z,19.70
2018-04-14T22:26:03.209Z,18.73
2018-04-14T22:28:30.847Z,20.40
2018-04-14T22:30:59.770Z,21.35
2018-04-14T22:33:27.476Z,21.23
2018-04-14T22:35:55.088Z,20.30
2018-04-14T22:38:23.456Z,21.10
2018-04-14T22:40:51.995Z,19.87
2018-04-14T22:43:20.422Z,18.80
2018-04-14T22:45:48.082Z,20.55
2018-04-14T22:48:15.721Z,19.70
2018-04-14T22:50:43.358Z,19.95
2018-04-14T22:53:11.528Z,20.48
2018-04-14T22:55:39.931Z,19.92
2018-04-14T22:58:07.581Z,21.17
2018-04-14T23:00:36.012Z,20.10
2018-04-14T23:03:04.271Z,21.83
2018-04-14T23:05:31.930Z,19.95
2018-04-14T23:08:00.386Z,19.80
2018-04-14T23:10:28.796Z,22.65
2018-04-14T23:12:56.427Z,20.60
2018-04-14T23:15:24.091Z,21.83
2018-04-14T23:17:51.743Z,20.62
2018-04-14T23:20:19.414Z,20.48
2018-04-14T23:22:47.100Z,19.45
2018-04-14T23:25:15.574Z,21.40
2018-04-14T23:27:43.238Z,21.10
2018-04-14T23:30:11.715Z,18.33
2018-04-14T23:32:40.126Z,19.35
2018-04-14T23:35:08.554Z,23.48
2018-04-14T23:37:36.189Z,20.37
2018-04-14T23:40:05.852Z,22.60
2018-04-14T23:42:33.525Z,21.97
2018-04-14T23:45:01.146Z,19.17
2018-04-14T23:47:28.756Z,20.60
2018-04-14T23:49:56.429Z,20.83
2018-04-14T23:52:24.080Z,21.77
2018-04-14T23:54:51.731Z,19.10
2018-04-14T23:57:19.410Z,22.35
2018-04-14T23:59:47.021Z,22.60
